Anthem, Arizona
Current Conditions -  °F | °C
As of 4:53 AM on Saturday 20 Dec 2014 (Local Time) from KDVT Reporting Station
Clear Clear  
Wind Chill:   Ceiling: Unl
Heat Index:   Visibility: 10mi
Dew Point:   Wind: 6mph
Humidity: 73%   Direction: 80°E
Pressure: 30.09"   Gusts: NA
Location:  33.8348°N, 112.071°W
Report Text: KDVT 201153Z 08005KT 10SM CLR 08/03 A3009 RMK AO2 SLP183 T00780033 10100 20067 58005
Loading
Personal Weather Stations






























Interactive Weather Map New forecast layout! Learn more

10-Day Weather Forecast

Advertisements
Track Severe Weather on mobile